createdAt,value
2017-10-30T00:00:13.943Z,22.8
2017-10-30T00:01:22.031Z,22.8
2017-10-30T00:02:30.117Z,22.8
2017-10-30T00:03:38.213Z,22.8
2017-10-30T00:04:46.307Z,22.7
2017-10-30T00:05:54.388Z,22.7
2017-10-30T00:07:02.476Z,22.8
2017-10-30T00:08:10.564Z,22.8
2017-10-30T00:09:18.651Z,22.8
2017-10-30T00:10:26.739Z,22.8
2017-10-30T00:11:34.826Z,22.8
2017-10-30T00:12:42.917Z,22.8
2017-10-30T00:13:51.000Z,22.7
2017-10-30T00:14:59.087Z,22.8
2017-10-30T00:16:07.175Z,22.8
2017-10-30T00:17:15.263Z,22.8
2017-10-30T00:18:23.349Z,22.8
2017-10-30T00:19:31.437Z,22.7
2017-10-30T00:20:39.533Z,22.8
2017-10-30T00:21:47.621Z,22.7
2017-10-30T00:22:55.712Z,22.8
2017-10-30T00:24:03.795Z,22.8
2017-10-30T00:25:11.884Z,22.8
2017-10-30T00:26:19.972Z,22.7
2017-10-30T00:27:28.058Z,22.8
2017-10-30T00:28:36.147Z,22.8
2017-10-30T00:29:44.232Z,22.8
2017-10-30T00:30:52.321Z,22.8
2017-10-30T00:32:00.404Z,22.8
2017-10-30T00:33:08.495Z,22.8
2017-10-30T00:34:16.583Z,22.8
2017-10-30T00:35:24.669Z,22.7
2017-10-30T00:36:32.757Z,22.8
2017-10-30T00:37:41.063Z,22.7
2017-10-30T00:38:48.931Z,22.8
2017-10-30T00:39:57.019Z,22.8
2017-10-30T00:41:05.121Z,22.8
2017-10-30T00:42:13.499Z,22.8
2017-10-30T00:43:21.588Z,22.8
2017-10-30T00:44:29.679Z,22.8
2017-10-30T00:45:37.762Z,22.7
2017-10-30T00:46:45.849Z,22.7
2017-10-30T00:47:53.938Z,22.8
2017-10-30T00:49:02.030Z,22.7
2017-10-30T00:50:10.109Z,22.8
2017-10-30T00:51:18.195Z,22.8
2017-10-30T00:52:26.304Z,22.8
2017-10-30T00:53:34.391Z,22.8
2017-10-30T00:54:42.477Z,22.8
2017-10-30T00:55:50.566Z,22.8
2017-10-30T00:56:58.653Z,22.8
2017-10-30T00:58:06.740Z,22.7
2017-10-30T00:59:14.831Z,22.8
2017-10-30T01:00:22.924Z,22.8
2017-10-30T01:01:31.004Z,22.8
2017-10-30T01:02:39.087Z,22.7
2017-10-30T01:03:47.174Z,22.7
2017-10-30T01:04:55.262Z,22.8
2017-10-30T01:06:03.350Z,22.8
2017-10-30T01:07:11.436Z,22.8
2017-10-30T01:08:19.527Z,22.8
2017-10-30T01:09:27.611Z,22.8
2017-10-30T01:10:35.709Z,22.8
2017-10-30T01:11:43.804Z,22.7
2017-10-30T01:12:51.894Z,22.8
2017-10-30T01:13:59.986Z,22.8
2017-10-30T01:15:08.066Z,22.7
2017-10-30T01:16:16.158Z,22.8
2017-10-30T01:17:24.241Z,22.7
2017-10-30T01:18:32.326Z,22.7
2017-10-30T01:19:40.415Z,22.8
2017-10-30T01:20:48.518Z,22.8
2017-10-30T01:21:56.609Z,22.7
2017-10-30T01:23:04.699Z,22.7
2017-10-30T01:24:12.788Z,22.8
2017-10-30T01:25:20.877Z,22.8
2017-10-30T01:26:28.972Z,22.8
2017-10-30T01:27:37.061Z,22.8
2017-10-30T01:28:45.168Z,22.8
2017-10-30T01:29:53.235Z,22.8
2017-10-30T01:31:01.322Z,22.8
2017-10-30T01:32:09.418Z,22.8
2017-10-30T01:33:17.500Z,22.7
2017-10-30T01:34:25.583Z,22.7
2017-10-30T01:35:33.678Z,22.8
2017-10-30T01:36:41.768Z,22.8
2017-10-30T01:37:49.854Z,22.7
2017-10-30T01:38:57.952Z,22.7
2017-10-30T01:40:06.040Z,22.7
2017-10-30T01:41:14.123Z,22.7
2017-10-30T01:42:22.212Z,22.6
2017-10-30T01:43:30.472Z,22.6
2017-10-30T01:44:38.405Z,22.7
2017-10-30T01:45:46.478Z,22.8
2017-10-30T01:46:54.567Z,22.8
2017-10-30T01:48:02.660Z,22.7
2017-10-30T01:49:10.741Z,22.8
2017-10-30T01:50:18.828Z,22.7
2017-10-30T01:51:26.926Z,22.7
2017-10-30T01:52:35.012Z,22.6
2017-10-30T01:53:43.111Z,22.7
2017-10-30T01:54:51.197Z,22.7
2017-10-30T01:55:59.295Z,22.7
2017-10-30T01:57:07.383Z,22.8
2017-10-30T01:58:15.492Z,22.7
2017-10-30T01:59:23.575Z,22.7
2017-10-30T02:00:31.663Z,22.7
2017-10-30T02:01:39.750Z,22.8
2017-10-30T02:02:47.845Z,22.8
2017-10-30T02:03:56.188Z,22.7
2017-10-30T02:05:04.014Z,22.7
2017-10-30T02:06:12.100Z,22.8
2017-10-30T02:07:20.186Z,22.8
2017-10-30T02:08:28.275Z,22.8
2017-10-30T02:09:36.360Z,22.8
2017-10-30T02:10:44.447Z,22.8
2017-10-30T02:11:52.534Z,22.8
2017-10-30T02:13:00.622Z,22.7
2017-10-30T02:14:08.710Z,22.7
2017-10-30T02:15:16.797Z,22.8
2017-10-30T02:16:24.889Z,22.8
2017-10-30T02:17:32.977Z,22.8
2017-10-30T02:18:41.065Z,22.8
2017-10-30T02:19:49.162Z,22.8
2017-10-30T02:20:57.249Z,22.8
2017-10-30T02:22:05.336Z,22.8
2017-10-30T02:23:13.425Z,22.8
2017-10-30T02:24:21.511Z,22.8
2017-10-30T02:25:29.599Z,22.9
2017-10-30T02:26:37.688Z,22.7
2017-10-30T02:27:45.773Z,22.8
2017-10-30T02:28:53.861Z,22.7
2017-10-30T02:30:01.956Z,22.7
2017-10-30T02:31:10.041Z,22.8
2017-10-30T02:32:18.130Z,22.8
2017-10-30T02:33:26.217Z,22.8
2017-10-30T02:34:34.304Z,22.8
2017-10-30T02:35:42.392Z,22.8
2017-10-30T02:36:50.477Z,22.8
2017-10-30T02:37:58.565Z,22.8
2017-10-30T02:39:06.660Z,22.8
2017-10-30T02:40:14.739Z,22.8
2017-10-30T02:41:22.844Z,22.8
2017-10-30T02:42:30.941Z,22.8
2017-10-30T02:43:39.006Z,22.8
2017-10-30T02:44:47.100Z,22.8
2017-10-30T02:45:55.180Z,22.8
2017-10-30T02:47:03.272Z,22.8
2017-10-30T02:48:11.356Z,22.8
2017-10-30T02:49:19.443Z,22.9
2017-10-30T02:50:27.534Z,22.9
2017-10-30T02:51:35.636Z,22.8
2017-10-30T02:52:43.739Z,22.8
2017-10-30T02:53:51.802Z,22.9
2017-10-30T02:54:59.894Z,22.8
2017-10-30T02:56:07.981Z,22.9
2017-10-30T02:57:16.068Z,22.9
2017-10-30T02:58:24.155Z,22.9
2017-10-30T02:59:32.241Z,22.9
2017-10-30T03:00:40.344Z,22.9
2017-10-30T03:01:48.434Z,22.8
2017-10-30T03:02:56.516Z,22.9
2017-10-30T03:04:04.606Z,22.9
2017-10-30T03:05:12.690Z,22.9
2017-10-30T03:06:20.779Z,22.9
2017-10-30T03:07:28.864Z,22.8
2017-10-30T03:08:36.949Z,22.8
2017-10-30T03:09:45.036Z,22.9
2017-10-30T03:10:53.124Z,22.8
2017-10-30T03:12:01.576Z,22.9
2017-10-30T03:13:09.667Z,22.9
2017-10-30T03:14:17.770Z,22.9
2017-10-30T03:15:25.839Z,22.8
2017-10-30T03:16:33.939Z,22.9
2017-10-30T03:17:42.027Z,22.9
2017-10-30T03:18:50.111Z,22.8
2017-10-30T03:19:58.199Z,22.8
2017-10-30T03:21:06.289Z,22.9
2017-10-30T03:22:14.375Z,22.9
2017-10-30T03:23:22.462Z,22.8
2017-10-30T03:24:30.550Z,22.9
2017-10-30T03:25:38.637Z,22.9
2017-10-30T03:26:46.723Z,22.8
2017-10-30T03:27:54.812Z,22.9
2017-10-30T03:29:02.898Z,22.9
2017-10-30T03:30:11.005Z,22.9
2017-10-30T03:31:19.070Z,22.9
2017-10-30T03:32:27.203Z,22.8
2017-10-30T03:33:35.246Z,22.9
2017-10-30T03:34:43.378Z,22.8
2017-10-30T03:35:51.421Z,22.8
2017-10-30T03:36:59.527Z,22.9
2017-10-30T03:38:07.598Z,22.9
2017-10-30T03:39:15.682Z,22.9
2017-10-30T03:40:23.772Z,22.9
2017-10-30T03:41:31.855Z,22.9
2017-10-30T03:42:39.945Z,22.9
2017-10-30T03:43:48.041Z,22.9
2017-10-30T03:44:56.118Z,22.8
2017-10-30T03:46:04.205Z,22.8
2017-10-30T03:47:12.292Z,22.9
2017-10-30T03:48:20.392Z,22.9
2017-10-30T03:49:28.488Z,22.9
2017-10-30T03:50:36.581Z,22.9
2017-10-30T03:51:44.662Z,23.0
2017-10-30T03:52:52.748Z,23.0
2017-10-30T03:54:00.842Z,22.9
2017-10-30T03:55:08.931Z,22.9
2017-10-30T03:56:17.015Z,22.9
2017-10-30T03:57:25.114Z,23.0
2017-10-30T03:58:33.202Z,23.0
2017-10-30T03:59:41.302Z,22.9
2017-10-30T04:00:49.391Z,22.9
2017-10-30T04:01:57.481Z,23.0
2017-10-30T04:03:05.566Z,23.0
2017-10-30T04:04:13.656Z,22.9
2017-10-30T04:05:21.740Z,22.9
2017-10-30T04:06:29.828Z,22.9
2017-10-30T04:07:37.912Z,23.0
2017-10-30T04:08:46.001Z,22.9
2017-10-30T04:09:54.088Z,23.0
2017-10-30T04:11:02.181Z,22.9
2017-10-30T04:12:10.265Z,22.9
2017-10-30T04:13:18.349Z,22.9
2017-10-30T04:14:26.436Z,22.9
2017-10-30T04:15:34.525Z,22.9
2017-10-30T04:16:42.612Z,23.0
2017-10-30T04:17:50.698Z,23.0
2017-10-30T04:18:58.785Z,22.9
2017-10-30T04:20:06.879Z,22.9
2017-10-30T04:21:14.963Z,22.9
2017-10-30T04:22:23.049Z,22.9
2017-10-30T04:23:31.136Z,22.9
2017-10-30T04:24:39.225Z,23.0
2017-10-30T04:25:47.312Z,23.0
2017-10-30T04:26:55.423Z,22.9
2017-10-30T04:28:03.505Z,23.0
2017-10-30T04:29:11.592Z,22.9
2017-10-30T04:30:19.679Z,22.9
2017-10-30T04:31:27.775Z,22.9
2017-10-30T04:32:35.864Z,22.8
2017-10-30T04:33:43.956Z,22.8
2017-10-30T04:34:52.037Z,23.0
2017-10-30T04:36:00.127Z,22.8
2017-10-30T04:37:08.217Z,22.9
2017-10-30T04:38:16.311Z,22.9
2017-10-30T04:39:24.412Z,22.9
2017-10-30T04:40:32.498Z,22.8
2017-10-30T04:41:40.586Z,22.8
2017-10-30T04:42:48.685Z,22.9
2017-10-30T04:43:56.765Z,22.9
2017-10-30T04:45:04.843Z,22.9
2017-10-30T04:46:12.934Z,22.8
2017-10-30T04:47:21.018Z,22.9
2017-10-30T04:48:29.113Z,22.9
2017-10-30T04:49:37.196Z,22.8
2017-10-30T04:50:45.287Z,22.9
2017-10-30T04:51:53.370Z,22.9
2017-10-30T04:53:01.465Z,22.9
2017-10-30T04:54:09.546Z,22.9
2017-10-30T04:55:17.629Z,22.9
2017-10-30T04:56:25.722Z,22.8
2017-10-30T04:57:33.828Z,22.9
2017-10-30T04:58:41.896Z,22.8
2017-10-30T04:59:49.985Z,22.8
2017-10-30T05:00:58.073Z,22.8
2017-10-30T05:02:06.161Z,22.8
2017-10-30T05:03:14.245Z,22.8
2017-10-30T05:04:22.332Z,22.8
2017-10-30T05:05:30.418Z,22.8
2017-10-30T05:06:38.510Z,22.8
2017-10-30T05:07:46.596Z,22.7
2017-10-30T05:08:54.685Z,22.9
2017-10-30T05:10:02.770Z,22.8
2017-10-30T05:11:10.859Z,22.8
2017-10-30T05:12:18.950Z,22.8
2017-10-30T05:13:27.033Z,22.9
2017-10-30T05:14:35.118Z,22.8
2017-10-30T05:15:43.224Z,22.8
2017-10-30T05:16:51.317Z,22.8
2017-10-30T05:17:59.382Z,22.8
2017-10-30T05:19:07.469Z,22.8
2017-10-30T05:20:15.562Z,22.8
2017-10-30T05:21:23.647Z,22.8
2017-10-30T05:22:31.733Z,22.8
2017-10-30T05:23:39.822Z,22.8
2017-10-30T05:24:48.007Z,22.7
2017-10-30T05:25:55.997Z,22.8
2017-10-30T05:27:04.088Z,22.7
2017-10-30T05:28:12.171Z,22.6
2017-10-30T05:29:20.259Z,22.6
2017-10-30T05:30:28.351Z,22.8
2017-10-30T05:31:36.457Z,22.6
2017-10-30T05:32:44.537Z,22.6
2017-10-30T05:33:52.623Z,22.6
2017-10-30T05:35:01.813Z,22.6
2017-10-30T05:36:08.800Z,22.6
2017-10-30T05:37:16.886Z,22.6
2017-10-30T05:38:24.972Z,22.6
2017-10-30T05:39:33.069Z,22.6
2017-10-30T05:40:41.159Z,22.6
2017-10-30T05:41:49.242Z,22.6
2017-10-30T05:42:57.331Z,22.6
2017-10-30T05:44:05.420Z,22.6
2017-10-30T05:45:13.845Z,22.6
2017-10-30T05:46:21.930Z,22.6
2017-10-30T05:47:30.043Z,22.6
2017-10-30T05:48:38.110Z,22.6
2017-10-30T05:49:46.191Z,22.6
2017-10-30T05:50:54.277Z,22.6
2017-10-30T05:52:02.363Z,22.5
2017-10-30T05:53:10.463Z,22.5
2017-10-30T05:54:18.555Z,22.5
2017-10-30T05:55:26.643Z,22.6
2017-10-30T05:56:34.728Z,22.6
2017-10-30T05:57:42.813Z,22.5
2017-10-30T05:58:50.902Z,22.5
2017-10-30T05:59:58.991Z,22.5
2017-10-30T06:01:07.078Z,22.5
2017-10-30T06:02:15.163Z,22.5
2017-10-30T06:03:23.505Z,22.5
2017-10-30T06:04:31.395Z,22.5
2017-10-30T06:05:39.492Z,22.5
2017-10-30T06:06:47.569Z,22.5
2017-10-30T06:07:55.658Z,22.5
2017-10-30T06:09:03.746Z,22.5
2017-10-30T06:10:11.832Z,22.5
2017-10-30T06:11:19.921Z,22.5
2017-10-30T06:12:28.011Z,22.3
2017-10-30T06:13:36.092Z,22.5
2017-10-30T06:14:44.183Z,22.5
2017-10-30T06:15:52.269Z,22.5
2017-10-30T06:17:00.356Z,22.4
2017-10-30T06:18:08.454Z,22.3
2017-10-30T06:19:16.883Z,22.4
2017-10-30T06:20:24.972Z,22.4
2017-10-30T06:21:33.066Z,22.4
2017-10-30T06:22:41.162Z,22.4
2017-10-30T06:23:49.237Z,22.4
2017-10-30T06:24:57.324Z,22.4
2017-10-30T06:26:05.409Z,22.4
2017-10-30T06:27:13.494Z,22.3
2017-10-30T06:28:21.582Z,22.3
2017-10-30T06:29:29.671Z,22.2
2017-10-30T06:30:37.754Z,22.2
2017-10-30T06:31:45.850Z,22.3
2017-10-30T06:32:53.950Z,22.3
2017-10-30T06:34:02.036Z,22.3
2017-10-30T06:35:10.124Z,22.3
2017-10-30T06:36:18.211Z,22.3
2017-10-30T06:37:26.297Z,22.2
2017-10-30T06:38:34.387Z,22.1
2017-10-30T06:39:42.472Z,22.2
2017-10-30T06:40:50.560Z,22.3
2017-10-30T06:41:58.669Z,22.2
2017-10-30T06:43:06.731Z,22.2
2017-10-30T06:44:14.819Z,22.2
2017-10-30T06:45:22.916Z,22.2
2017-10-30T06:46:31.002Z,22.2
2017-10-30T06:47:39.092Z,22.2
2017-10-30T06:48:47.177Z,22.2
2017-10-30T06:49:55.264Z,22.2
2017-10-30T06:51:03.350Z,22.1
2017-10-30T06:52:11.437Z,22.2
2017-10-30T06:53:19.532Z,22.1
2017-10-30T06:54:27.614Z,22.1
2017-10-30T06:55:35.709Z,22.1
2017-10-30T06:56:43.789Z,22.1
2017-10-30T06:57:51.871Z,22.1
2017-10-30T06:58:59.958Z,22.0
2017-10-30T07:00:08.051Z,22.1
2017-10-30T07:01:16.130Z,22.1
2017-10-30T07:02:24.218Z,22.1
2017-10-30T07:03:32.306Z,22.0
2017-10-30T07:04:40.394Z,22.0
2017-10-30T07:05:48.482Z,22.0
2017-10-30T07:06:56.568Z,22.1
2017-10-30T07:08:04.654Z,22.0
2017-10-30T07:09:12.741Z,21.9
2017-10-30T07:10:20.826Z,22.0
2017-10-30T07:11:28.925Z,21.9
2017-10-30T07:12:37.001Z,22.0
2017-10-30T07:13:45.090Z,21.9
2017-10-30T07:14:53.178Z,22.0
2017-10-30T07:16:01.272Z,21.9
2017-10-30T07:17:09.361Z,21.9
2017-10-30T07:18:17.446Z,21.9
2017-10-30T07:19:25.535Z,22.0
2017-10-30T07:20:33.622Z,21.9
2017-10-30T07:21:41.709Z,21.9
2017-10-30T07:22:49.794Z,21.9
2017-10-30T07:23:57.881Z,21.9
2017-10-30T07:25:05.967Z,21.8
2017-10-30T07:26:14.052Z,21.8
2017-10-30T07:27:22.140Z,21.8
2017-10-30T07:28:30.398Z,21.8
2017-10-30T07:29:38.484Z,21.8
2017-10-30T07:30:46.572Z,21.8
2017-10-30T07:31:54.664Z,21.8
2017-10-30T07:33:02.751Z,21.8
2017-10-30T07:34:11.117Z,21.8
2017-10-30T07:35:18.917Z,21.8
2017-10-30T07:36:27.009Z,21.7
2017-10-30T07:37:35.089Z,21.7
2017-10-30T07:38:43.178Z,21.8
2017-10-30T07:39:51.311Z,21.8
2017-10-30T07:40:59.351Z,21.7
2017-10-30T07:42:07.440Z,21.7
2017-10-30T07:43:15.525Z,21.7
2017-10-30T07:44:23.612Z,21.7
2017-10-30T07:45:31.698Z,21.7
2017-10-30T07:46:39.783Z,21.6
2017-10-30T07:47:47.870Z,21.6
2017-10-30T07:48:55.957Z,21.6
2017-10-30T07:50:04.045Z,21.6
2017-10-30T07:51:12.140Z,21.6
2017-10-30T07:52:20.480Z,21.7
2017-10-30T07:53:28.382Z,21.7
2017-10-30T07:54:36.410Z,21.6
2017-10-30T07:55:44.735Z,21.7
2017-10-30T07:56:52.817Z,21.7
2017-10-30T07:58:00.898Z,21.6
2017-10-30T07:59:08.982Z,21.7
2017-10-30T08:00:17.082Z,21.6
2017-10-30T08:01:25.169Z,21.7
2017-10-30T08:02:33.242Z,21.6
2017-10-30T08:03:41.403Z,21.6
2017-10-30T08:04:49.418Z,21.7
2017-10-30T08:05:57.597Z,21.6
2017-10-30T08:07:05.589Z,21.7
2017-10-30T08:08:13.696Z,21.7
2017-10-30T08:09:21.779Z,21.7
2017-10-30T08:10:29.864Z,21.6
2017-10-30T08:11:37.952Z,21.6
2017-10-30T08:12:46.036Z,21.6
2017-10-30T08:13:54.123Z,21.7
2017-10-30T08:15:02.210Z,21.7
2017-10-30T08:16:10.302Z,21.6
2017-10-30T08:17:18.383Z,21.6
2017-10-30T08:18:26.780Z,21.6
2017-10-30T08:19:34.869Z,21.6
2017-10-30T08:20:42.956Z,21.6
2017-10-30T08:21:51.040Z,21.6
2017-10-30T08:22:59.129Z,21.6
2017-10-30T08:24:07.213Z,21.6
2017-10-30T08:25:15.306Z,21.6
2017-10-30T08:26:23.395Z,21.6
2017-10-30T08:27:31.475Z,21.7
2017-10-30T08:28:39.562Z,21.6
2017-10-30T08:29:47.647Z,21.6
2017-10-30T08:30:55.738Z,21.6
2017-10-30T08:32:03.817Z,21.6
2017-10-30T08:33:11.905Z,21.6
2017-10-30T08:34:19.991Z,21.6
2017-10-30T08:35:28.079Z,21.7
2017-10-30T08:36:36.162Z,21.7
2017-10-30T08:37:44.250Z,21.6
2017-10-30T08:38:52.337Z,21.7
2017-10-30T08:40:00.423Z,21.7
2017-10-30T08:41:08.507Z,21.6
2017-10-30T08:42:16.594Z,21.7
2017-10-30T08:43:24.735Z,21.6
2017-10-30T08:44:32.768Z,21.6
2017-10-30T08:45:40.853Z,21.7
2017-10-30T08:46:48.939Z,21.6
2017-10-30T08:47:57.026Z,21.7
2017-10-30T08:49:05.115Z,21.6
2017-10-30T08:50:13.205Z,21.7
2017-10-30T08:51:21.284Z,21.5
2017-10-30T08:52:29.372Z,21.6
2017-10-30T08:53:37.458Z,21.8
2017-10-30T08:54:45.554Z,21.6
2017-10-30T08:55:53.643Z,21.7
2017-10-30T08:57:01.731Z,21.7
2017-10-30T08:58:09.816Z,21.7
2017-10-30T08:59:17.900Z,21.7
2017-10-30T09:00:25.984Z,21.6
2017-10-30T09:01:34.072Z,21.7
2017-10-30T09:02:42.162Z,21.7
2017-10-30T09:03:50.251Z,21.7
2017-10-30T09:04:58.340Z,21.7
2017-10-30T09:06:06.424Z,21.7
2017-10-30T09:07:14.507Z,21.7
2017-10-30T09:08:22.593Z,21.8
2017-10-30T09:09:30.679Z,21.7
2017-10-30T09:10:38.768Z,21.8
2017-10-30T09:11:46.859Z,21.7
2017-10-30T09:12:54.942Z,21.7
2017-10-30T09:14:03.028Z,21.8
2017-10-30T09:15:11.125Z,21.7
2017-10-30T09:16:19.210Z,21.7
2017-10-30T09:17:27.295Z,21.8
2017-10-30T09:18:35.382Z,21.7
2017-10-30T09:19:43.468Z,21.8
2017-10-30T09:20:51.556Z,21.8
2017-10-30T09:21:59.647Z,21.8
2017-10-30T09:23:07.743Z,21.8
2017-10-30T09:24:15.825Z,21.8
2017-10-30T09:25:23.914Z,21.8
2017-10-30T09:26:32.000Z,21.8
2017-10-30T09:27:40.084Z,21.8
2017-10-30T09:28:48.179Z,21.9
2017-10-30T09:29:56.266Z,21.9
2017-10-30T09:31:04.356Z,21.9
2017-10-30T09:32:12.439Z,21.9
2017-10-30T09:33:20.530Z,21.9
2017-10-30T09:34:28.611Z,21.9
2017-10-30T09:35:37.184Z,21.9
2017-10-30T09:36:45.270Z,21.9
2017-10-30T09:37:53.356Z,21.9
2017-10-30T09:39:01.444Z,21.9
2017-10-30T09:40:09.568Z,21.9
2017-10-30T09:41:17.618Z,22.0
2017-10-30T09:42:25.705Z,21.9
2017-10-30T09:43:33.792Z,21.9
2017-10-30T09:44:41.878Z,21.9
2017-10-30T09:45:49.964Z,21.9
2017-10-30T09:46:58.061Z,22.0
2017-10-30T09:48:06.147Z,21.9
2017-10-30T09:49:14.236Z,21.9
2017-10-30T09:50:22.320Z,21.9
2017-10-30T09:51:30.409Z,22.0
2017-10-30T09:52:38.496Z,22.0
2017-10-30T09:53:46.580Z,22.0
2017-10-30T09:54:54.699Z,21.9
2017-10-30T09:56:02.753Z,22.0
2017-10-30T09:57:10.854Z,21.9
2017-10-30T09:58:18.971Z,22.0
2017-10-30T09:59:27.078Z,22.0
2017-10-30T10:00:35.125Z,22.0
2017-10-30T10:01:43.197Z,22.0
2017-10-30T10:02:51.282Z,22.0
2017-10-30T10:03:59.367Z,21.8
2017-10-30T10:05:07.453Z,22.0
2017-10-30T10:06:15.541Z,22.0
2017-10-30T10:07:23.627Z,22.0
2017-10-30T10:08:31.731Z,22.1
2017-10-30T10:09:39.801Z,22.1
2017-10-30T10:10:47.890Z,22.1
2017-10-30T10:11:55.974Z,22.1
2017-10-30T10:13:04.063Z,22.0
2017-10-30T10:14:12.149Z,22.0
2017-10-30T10:15:20.241Z,22.1
2017-10-30T10:16:28.325Z,22.1
2017-10-30T10:17:36.420Z,22.1
2017-10-30T10:18:44.522Z,22.1
2017-10-30T10:19:52.716Z,22.0
2017-10-30T10:21:00.794Z,22.1
2017-10-30T10:22:08.779Z,22.1
2017-10-30T10:23:16.867Z,22.1
2017-10-30T10:24:24.955Z,22.0
2017-10-30T10:25:33.042Z,22.1
2017-10-30T10:26:41.129Z,22.1
2017-10-30T10:27:49.212Z,22.1
2017-10-30T10:28:57.299Z,22.2
2017-10-30T10:30:05.386Z,22.0
2017-10-30T10:31:13.472Z,22.1
2017-10-30T10:32:21.564Z,22.1
2017-10-30T10:33:29.647Z,22.1
2017-10-30T10:34:37.732Z,22.1
2017-10-30T10:35:45.825Z,22.0
2017-10-30T10:36:53.903Z,22.2
2017-10-30T10:38:01.995Z,22.1
2017-10-30T10:39:10.080Z,22.2
2017-10-30T10:40:18.165Z,22.1
2017-10-30T10:41:26.254Z,22.1
2017-10-30T10:42:34.339Z,22.2
2017-10-30T10:43:42.427Z,22.2
2017-10-30T10:44:50.511Z,22.1
2017-10-30T10:45:58.595Z,22.2
2017-10-30T10:47:06.680Z,22.2
2017-10-30T10:48:14.785Z,22.2
2017-10-30T10:49:22.866Z,22.2
2017-10-30T10:50:30.955Z,22.2
2017-10-30T10:51:39.049Z,22.3
2017-10-30T10:52:47.124Z,22.2
2017-10-30T10:53:55.217Z,22.3
2017-10-30T10:55:03.296Z,22.2
2017-10-30T10:56:11.382Z,22.3
2017-10-30T10:57:19.474Z,22.2
2017-10-30T10:58:27.562Z,22.3
2017-10-30T10:59:35.646Z,22.2
2017-10-30T11:00:43.731Z,22.3
2017-10-30T11:01:51.820Z,22.3
2017-10-30T11:02:59.904Z,22.2
2017-10-30T11:04:07.989Z,22.3
2017-10-30T11:05:16.075Z,22.3
2017-10-30T11:06:24.163Z,22.3
2017-10-30T11:07:32.250Z,22.4
2017-10-30T11:08:40.335Z,22.4
2017-10-30T11:09:48.425Z,22.4
2017-10-30T11:10:56.514Z,22.4
2017-10-30T11:12:04.599Z,22.4
2017-10-30T11:13:12.686Z,22.4
2017-10-30T11:14:20.771Z,22.4
2017-10-30T11:15:28.856Z,22.4
2017-10-30T11:16:36.982Z,22.4
2017-10-30T11:17:45.074Z,22.4
2017-10-30T11:18:53.163Z,22.4
2017-10-30T11:20:01.242Z,22.5
2017-10-30T11:21:09.336Z,22.4
2017-10-30T11:22:17.427Z,22.5
2017-10-30T11:23:25.525Z,22.4
2017-10-30T11:24:33.601Z,22.5
2017-10-30T11:25:41.684Z,22.6
2017-10-30T11:26:49.771Z,22.5
2017-10-30T11:27:57.857Z,22.5
2017-10-30T11:29:05.945Z,22.5
2017-10-30T11:30:14.033Z,22.5
2017-10-30T11:31:22.175Z,22.5
2017-10-30T11:32:30.216Z,22.5
2017-10-30T11:33:38.308Z,22.5
2017-10-30T11:34:46.408Z,22.5
2017-10-30T11:35:54.477Z,22.6
2017-10-30T11:37:02.565Z,22.6
2017-10-30T11:38:11.128Z,22.6
2017-10-30T11:39:18.739Z,22.5
2017-10-30T11:40:26.924Z,22.6
2017-10-30T11:41:34.913Z,22.6
2017-10-30T11:42:42.999Z,22.5
2017-10-30T11:43:51.108Z,22.6
2017-10-30T11:44:59.303Z,22.6
2017-10-30T11:46:07.378Z,22.6
2017-10-30T11:47:15.364Z,22.6
2017-10-30T11:48:23.453Z,22.6
2017-10-30T11:49:31.540Z,22.7
2017-10-30T11:50:39.742Z,22.6
2017-10-30T11:51:47.816Z,22.6
2017-10-30T11:52:55.801Z,22.6
2017-10-30T11:54:03.894Z,22.6
2017-10-30T11:55:11.987Z,22.6
2017-10-30T11:56:20.565Z,22.7
2017-10-30T11:57:28.250Z,22.6
2017-10-30T11:58:36.250Z,22.6
2017-10-30T11:59:44.338Z,22.6
2017-10-30T12:00:52.425Z,22.6
2017-10-30T12:02:00.592Z,22.6
2017-10-30T12:03:08.600Z,22.6
2017-10-30T12:04:16.689Z,22.6
2017-10-30T12:05:24.775Z,22.7
2017-10-30T12:06:32.861Z,22.7
2017-10-30T12:07:41.292Z,22.6
2017-10-30T12:08:49.045Z,22.7
2017-10-30T12:09:57.180Z,22.6
2017-10-30T12:11:05.217Z,22.7
2017-10-30T12:12:13.310Z,22.8
2017-10-30T12:13:21.500Z,22.7
2017-10-30T12:14:29.588Z,22.7
2017-10-30T12:15:37.678Z,22.7
2017-10-30T12:16:45.787Z,22.7
2017-10-30T12:17:53.846Z,22.8
2017-10-30T12:19:01.933Z,22.7
2017-10-30T12:20:10.035Z,22.8
2017-10-30T12:21:18.114Z,22.8
2017-10-30T12:22:26.200Z,22.7
2017-10-30T12:23:34.288Z,22.8
2017-10-30T12:24:42.372Z,22.7
2017-10-30T12:25:50.460Z,22.7
2017-10-30T12:26:58.547Z,22.8
2017-10-30T12:28:06.654Z,22.9
2017-10-30T12:29:14.739Z,22.8
2017-10-30T12:30:22.830Z,22.7
2017-10-30T12:31:30.916Z,22.7
2017-10-30T12:32:39.001Z,22.8
2017-10-30T12:33:47.088Z,22.9
2017-10-30T12:34:55.176Z,22.8
2017-10-30T12:36:03.269Z,22.8
2017-10-30T12:37:11.352Z,22.7
2017-10-30T12:38:19.437Z,22.8
2017-10-30T12:39:27.535Z,22.7
2017-10-30T12:40:35.611Z,22.8
2017-10-30T12:41:43.710Z,22.8
2017-10-30T12:42:51.783Z,22.8
2017-10-30T12:43:59.872Z,22.8
2017-10-30T12:45:07.962Z,22.8
2017-10-30T12:46:16.108Z,22.7
2017-10-30T12:47:24.137Z,22.8
2017-10-30T12:48:32.222Z,22.8
2017-10-30T12:49:40.305Z,22.8
2017-10-30T12:50:48.396Z,22.8
2017-10-30T12:51:56.482Z,22.7
2017-10-30T12:53:04.568Z,22.8
2017-10-30T12:54:12.657Z,22.8
2017-10-30T12:55:20.747Z,22.8
2017-10-30T12:56:28.853Z,22.8
2017-10-30T12:57:36.918Z,22.8
2017-10-30T12:58:45.010Z,22.8
2017-10-30T12:59:53.093Z,22.8
2017-10-30T13:01:01.180Z,22.8
2017-10-30T13:02:09.288Z,22.8
2017-10-30T13:03:17.362Z,22.9
2017-10-30T13:04:25.454Z,22.9
2017-10-30T13:05:33.541Z,22.8
2017-10-30T13:06:41.623Z,22.9
2017-10-30T13:07:49.873Z,22.9
2017-10-30T13:08:57.799Z,22.8
2017-10-30T13:10:05.900Z,22.9
2017-10-30T13:11:13.971Z,22.9
2017-10-30T13:12:22.058Z,22.9
2017-10-30T13:13:30.145Z,22.9
2017-10-30T13:14:38.236Z,22.9
2017-10-30T13:15:46.333Z,22.9
2017-10-30T13:16:54.427Z,22.9
2017-10-30T13:18:02.506Z,22.9
2017-10-30T13:19:10.594Z,22.9
2017-10-30T13:20:18.682Z,22.9
2017-10-30T13:21:26.772Z,22.9
2017-10-30T13:22:34.857Z,22.8
2017-10-30T13:23:42.947Z,22.8
2017-10-30T13:24:51.033Z,22.9
2017-10-30T13:25:59.114Z,22.9
2017-10-30T13:27:07.207Z,22.9
2017-10-30T13:28:15.288Z,22.9
2017-10-30T13:29:23.377Z,22.9
2017-10-30T13:30:31.465Z,22.9
2017-10-30T13:31:39.551Z,22.9
2017-10-30T13:32:47.639Z,22.9
2017-10-30T13:33:55.727Z,22.8
2017-10-30T13:35:03.849Z,22.8
2017-10-30T13:36:11.908Z,22.9
2017-10-30T13:37:19.995Z,22.9
2017-10-30T13:38:28.082Z,22.8
2017-10-30T13:39:36.168Z,22.9
2017-10-30T13:40:44.257Z,22.8
2017-10-30T13:41:52.354Z,22.9
2017-10-30T13:43:00.439Z,22.9
2017-10-30T13:44:08.531Z,22.9
2017-10-30T13:45:16.626Z,22.9
2017-10-30T13:46:24.705Z,22.8
2017-10-30T13:47:32.814Z,23.0
2017-10-30T13:48:40.915Z,22.9
2017-10-30T13:49:48.996Z,22.8
2017-10-30T13:50:57.080Z,22.9
2017-10-30T13:52:05.168Z,22.9
2017-10-30T13:53:13.257Z,23.0
2017-10-30T13:54:21.340Z,23.0
2017-10-30T13:55:29.439Z,22.9
2017-10-30T13:56:37.523Z,23.0
2017-10-30T13:57:45.603Z,22.9
2017-10-30T13:58:53.692Z,22.9
2017-10-30T14:00:01.780Z,23.0
2017-10-30T14:01:09.867Z,22.9
2017-10-30T14:02:17.957Z,23.0
2017-10-30T14:03:26.041Z,22.9
2017-10-30T14:04:34.127Z,22.9
2017-10-30T14:05:42.217Z,22.9
2017-10-30T14:06:50.303Z,22.9
2017-10-30T14:07:58.390Z,22.9
2017-10-30T14:09:06.502Z,22.9
2017-10-30T14:10:14.570Z,22.9
2017-10-30T14:11:22.662Z,23.0
2017-10-30T14:12:30.738Z,23.0
2017-10-30T14:13:38.827Z,22.9
2017-10-30T14:14:46.927Z,23.0
2017-10-30T14:15:55.000Z,23.0
2017-10-30T14:17:03.088Z,23.0
2017-10-30T14:18:11.175Z,22.9
2017-10-30T14:19:19.261Z,23.0
2017-10-30T14:20:27.349Z,23.0
2017-10-30T14:21:35.442Z,22.9
2017-10-30T14:22:43.525Z,23.0
2017-10-30T14:23:51.608Z,23.0
2017-10-30T14:24:59.699Z,23.0
2017-10-30T14:26:07.785Z,23.0
2017-10-30T14:27:15.884Z,23.0
2017-10-30T14:28:23.959Z,22.9
2017-10-30T14:29:32.048Z,23.0
2017-10-30T14:30:40.136Z,22.9
2017-10-30T14:31:48.222Z,22.9
2017-10-30T14:32:56.307Z,23.0
2017-10-30T14:34:04.396Z,23.0
2017-10-30T14:35:12.503Z,22.9
2017-10-30T14:36:20.570Z,22.9
2017-10-30T14:37:28.657Z,23.0
2017-10-30T14:38:36.746Z,23.0
2017-10-30T14:39:44.902Z,23.0
2017-10-30T14:40:52.918Z,23.0
2017-10-30T14:42:01.007Z,23.0
2017-10-30T14:43:09.093Z,23.0
2017-10-30T14:44:17.181Z,23.1
2017-10-30T14:45:25.269Z,23.0
2017-10-30T14:46:33.356Z,22.9
2017-10-30T14:47:41.441Z,23.0
2017-10-30T14:48:49.533Z,23.0
2017-10-30T14:49:57.619Z,23.0
2017-10-30T14:51:05.705Z,22.9
2017-10-30T14:52:13.790Z,23.0
2017-10-30T14:53:22.116Z,23.0
2017-10-30T14:54:30.013Z,23.0
2017-10-30T14:55:38.053Z,23.0
2017-10-30T14:56:46.141Z,23.0
2017-10-30T14:57:54.228Z,23.0
2017-10-30T14:59:02.323Z,23.0
2017-10-30T15:00:10.455Z,23.0
2017-10-30T15:01:18.490Z,23.0
2017-10-30T15:02:26.579Z,23.0
2017-10-30T15:03:34.665Z,23.1
2017-10-30T15:04:42.757Z,23.0
2017-10-30T15:05:50.844Z,23.0